Time;durP1;ratioP1;P1;durP2;ratioP2;P2;SDS_P1;SDS_P2;PMS_P1;PMS_P2;Temp;Humidity;BMP_temperature;BMP_pressure;BME280_temperature;BME280_humidity;BME280_pressure;Samples;Min_cycle;Max_cycle;Signal;HPM_P1;HPM_P2
2023/06/06 00:01:17;;;;;;;8.80;6.53;;;14.20;75.90;;;;;;5069659;28;20103;-67
2023/06/06 00:03:48;;;;;;;8.82;6.00;;;14.20;76.10;;;;;;5070077;28;20089;-68
2023/06/06 00:06:15;;;;;;;9.02;5.72;;;14.10;76.50;;;;;;5068880;28;21402;-68
2023/06/06 00:08:42;;;;;;;7.43;5.60;;;14.10;76.60;;;;;;5070946;28;20016;-68
2023/06/06 00:11:12;;;;;;;8.45;6.05;;;14.10;76.60;;;;;;5070354;28;20017;-68
2023/06/06 00:13:38;;;;;;;8.63;6.00;;;14.00;77.40;;;;;;5073992;28;20033;-69
2023/06/06 00:16:04;;;;;;;7.72;5.90;;;14.00;76.90;;;;;;5072782;28;20020;-68
2023/06/06 00:18:30;;;;;;;8.15;5.60;;;14.00;77.10;;;;;;5074606;28;20039;-69
2023/06/06 00:20:55;;;;;;;8.80;6.07;;;14.00;77.00;;;;;;5077628;28;20487;-69
2023/06/06 00:23:21;;;;;;;8.73;5.60;;;13.90;77.30;;;;;;5072245;28;20029;-69
2023/06/06 00:25:49;;;;;;;7.82;5.60;;;13.90;77.40;;;;;;5071488;28;20027;-69
2023/06/06 00:28:15;;;;;;;8.93;5.38;;;13.80;77.50;;;;;;5072664;28;20450;-68
2023/06/06 00:30:41;;;;;;;7.63;5.82;;;13.80;78.10;;;;;;5071794;28;20450;-69
2023/06/06 00:33:06;;;;;;;8.50;6.20;;;13.80;77.50;;;;;;5075677;28;20056;-69
2023/06/06 00:35:32;;;;;;;8.68;5.63;;;13.70;77.60;;;;;;5072265;28;20028;-69
2023/06/06 00:37:58;;;;;;;7.28;5.25;;;13.70;78.00;;;;;;5071673;28;20035;-68
2023/06/06 00:40:23;;;;;;;8.90;5.63;;;13.70;78.00;;;;;;5075940;28;20386;-68
2023/06/06 00:42:49;;;;;;;7.30;5.57;;;13.70;78.00;;;;;;5070810;28;20025;-67
2023/06/06 00:45:15;;;;;;;8.13;5.63;;;13.60;78.00;;;;;;5073257;28;20035;-68
2023/06/06 00:47:41;;;;;;;9.80;5.85;;;13.60;78.90;;;;;;5071473;28;20103;-68
2023/06/06 00:50:08;;;;;;;9.18;5.47;;;13.60;78.40;;;;;;5076337;28;20074;-68
2023/06/06 00:52:35;;;;;;;8.73;6.05;;;13.60;78.20;;;;;;5070135;28;20024;-69
2023/06/06 00:55:01;;;;;;;8.63;6.22;;;13.50;78.60;;;;;;5069909;28;20021;-68
2023/06/06 00:57:27;;;;;;;9.48;5.75;;;13.50;78.70;;;;;;5080933;28;20023;-68
2023/06/06 00:59:53;;;;;;;8.63;5.95;;;13.50;78.70;;;;;;5073940;28;20017;-69
2023/06/06 01:02:20;;;;;;;8.43;6.05;;;13.50;78.70;;;;;;5073397;28;20036;-69
2023/06/06 01:04:46;;;;;;;7.97;5.75;;;13.40;78.60;;;;;;5071328;28;20029;-69
2023/06/06 01:07:17;;;;;;;9.32;6.45;;;13.40;79.00;;;;;;5071203;28;20021;-70
2023/06/06 01:09:44;;;;;;;8.63;6.10;;;13.30;79.10;;;;;;5072201;28;20031;-70
2023/06/06 01:12:25;;;;;;;9.65;6.05;;;13.20;79.50;;;;;;5077201;28;20034;-70
2023/06/06 01:14:55;;;;;;;9.30;6.03;;;13.30;79.60;;;;;;5072253;28;20025;-69
2023/06/06 01:17:25;;;;;;;8.45;5.13;;;13.20;79.70;;;;;;5071956;28;20395;-69
2023/06/06 01:19:53;;;;;;;9.55;5.57;;;13.20;79.60;;;;;;5068534;28;20016;-69
2023/06/06 01:22:22;;;;;;;9.82;6.65;;;13.20;79.50;;;;;;5076892;28;20028;-68
2023/06/06 01:24:52;;;;;;;8.77;5.43;;;13.10;79.80;;;;;;5068807;28;20024;-69
2023/06/06 01:27:18;;;;;;;7.57;5.78;;;13.10;80.00;;;;;;5075577;28;20029;-68
2023/06/06 01:29:43;;;;;;;9.15;5.75;;;13.10;80.00;;;;;;5073805;28;20498;-68
2023/06/06 01:32:15;;;;;;;8.85;6.53;;;13.10;80.00;;;;;;5074350;28;20097;-70
2023/06/06 01:35:00;;;;;;;9.43;6.10;;;13.10;80.00;;;;;;5073374;28;20127;-69
2023/06/06 01:37:47;;;;;;;9.05;6.03;;;13.00;80.20;;;;;;5075833;28;20024;-68
2023/06/06 01:40:17;;;;;;;7.82;5.80;;;13.00;80.50;;;;;;5072032;28;20020;-68
2023/06/06 01:42:49;;;;;;;10.00;5.70;;;12.90;80.60;;;;;;5072945;28;20114;-68
2023/06/06 01:45:15;;;;;;;;;;;12.90;80.60;;;;;;5073726;28;20511;-69
2023/06/06 01:47:42;;;;;;;9.38;6.15;;;12.90;80.50;;;;;;5072254;28;19912;-68
2023/06/06 01:50:09;;;;;;;9.73;6.70;;;12.90;80.90;;;;;;5069855;28;20021;-68
2023/06/06 01:52:36;;;;;;;8.52;6.30;;;12.80;81.20;;;;;;5070630;28;20027;-68
2023/06/06 01:55:02;;;;;;;8.30;5.72;;;12.80;81.30;;;;;;5070521;28;20659;-68
2023/06/06 01:57:28;;;;;;;9.27;6.18;;;12.80;81.20;;;;;;5071196;28;20017;-68
2023/06/06 01:59:54;;;;;;;10.65;6.57;;;12.70;81.30;;;;;;5068241;28;20095;-68
2023/06/06 02:02:20;;;;;;;7.88;5.70;;;12.70;81.50;;;;;;5078448;28;21446;-68
2023/06/06 02:04:45;;;;;;;7.28;5.18;;;12.80;81.80;;;;;;5069935;28;20024;-68
2023/06/06 02:07:12;;;;;;;8.75;6.13;;;12.80;81.60;;;;;;5068495;28;20029;-68
2023/06/06 02:09:38;;;;;;;9.55;6.25;;;12.80;81.40;;;;;;5075128;28;20028;-69
2023/06/06 02:12:05;;;;;;;9.00;6.25;;;12.80;81.70;;;;;;5070858;28;20050;-68
2023/06/06 02:14:30;;;;;;;9.68;5.93;;;12.70;81.80;;;;;;5070805;28;20028;-68
2023/06/06 02:16:57;;;;;;;9.73;6.68;;;12.70;82.10;;;;;;5070430;28;20023;-68
2023/06/06 02:19:22;;;;;;;8.02;5.97;;;12.70;82.00;;;;;;5070037;28;20016;-69
2023/06/06 02:21:50;;;;;;;9.93;5.97;;;12.70;82.20;;;;;;5070646;28;20039;-68
2023/06/06 02:24:15;;;;;;;10.48;6.55;;;12.70;82.10;;;;;;5070102;28;20020;-68
2023/06/06 02:26:42;;;;;;;10.80;6.22;;;12.70;82.00;;;;;;5068707;28;20368;-68
2023/06/06 02:29:08;;;;;;;9.65;6.45;;;12.70;82.00;;;;;;5072238;28;20643;-69
2023/06/06 02:31:36;;;;;;;8.50;5.93;;;12.70;82.00;;;;;;5071332;28;20112;-69
2023/06/06 02:34:02;;;;;;;8.20;5.93;;;12.60;82.20;;;;;;5068409;28;20036;-68
2023/06/06 02:36:29;;;;;;;8.88;6.30;;;12.70;82.60;;;;;;5069844;28;20395;-68
2023/06/06 02:38:56;;;;;;;8.45;6.63;;;12.60;82.40;;;;;;5069041;28;20405;-68
2023/06/06 02:41:22;;;;;;;8.43;6.45;;;12.60;82.50;;;;;;5073043;28;20059;-68
2023/06/06 02:43:48;;;;;;;9.52;5.97;;;12.60;82.70;;;;;;5069347;28;20053;-69
2023/06/06 02:46:13;;;;;;;9.20;6.40;;;12.50;82.60;;;;;;5072033;28;20025;-67
2023/06/06 02:48:39;;;;;;;9.95;6.72;;;12.60;83.10;;;;;;5066047;28;20029;-68
2023/06/06 02:51:06;;;;;;;9.48;6.90;;;12.50;83.00;;;;;;5067819;28;20028;-68
2023/06/06 02:53:32;;;;;;;11.40;7.60;;;12.50;83.20;;;;;;5067589;28;20048;-68
2023/06/06 02:55:58;;;;;;;9.38;6.70;;;12.50;83.30;;;;;;5070002;28;20059;-68
2023/06/06 02:58:30;;;;;;;7.43;6.15;;;12.50;83.20;;;;;;5070095;28;20027;-68
2023/06/06 03:00:57;;;;;;;9.90;6.85;;;12.50;83.20;;;;;;5070049;28;20019;-67
2023/06/06 03:03:24;;;;;;;10.13;6.82;;;12.50;83.40;;;;;;5069961;28;20029;-68
2023/06/06 03:05:51;;;;;;;9.45;7.05;;;12.50;83.70;;;;;;5069733;28;20036;-68
2023/06/06 03:08:18;;;;;;;11.30;7.63;;;12.50;83.90;;;;;;5069367;28;20020;-67
2023/06/06 03:10:45;;;;;;;9.93;6.82;;;12.50;83.70;;;;;;5069480;28;20031;-68
2023/06/06 03:13:10;;;;;;;11.50;7.20;;;12.40;83.60;;;;;;5067682;28;20036;-68
2023/06/06 03:15:36;;;;;;;10.43;7.05;;;12.40;83.70;;;;;;5070098;28;20028;-69
2023/06/06 03:18:02;;;;;;;10.05;7.28;;;12.30;84.00;;;;;;5065752;28;20024;-68
2023/06/06 03:20:30;;;;;;;11.15;6.82;;;12.30;84.10;;;;;;5068790;28;20096;-68
2023/06/06 03:22:56;;;;;;;10.65;6.80;;;12.30;84.10;;;;;;5068473;28;20502;-67
2023/06/06 03:25:25;;;;;;;9.88;6.82;;;12.30;84.20;;;;;;5069088;28;20041;-67
2023/06/06 03:27:50;;;;;;;10.38;7.10;;;12.30;84.30;;;;;;5067963;28;20025;-68
2023/06/06 03:30:16;;;;;;;10.48;6.72;;;12.30;84.40;;;;;;5069258;28;20028;-70
2023/06/06 03:32:42;;;;;;;8.95;6.40;;;12.30;84.50;;;;;;5069797;28;20025;-69
2023/06/06 03:35:08;;;;;;;9.88;6.38;;;12.30;84.40;;;;;;5069284;28;20361;-69
2023/06/06 03:37:34;;;;;;;9.88;6.68;;;12.30;84.70;;;;;;5069198;28;20078;-69
2023/06/06 03:39:59;;;;;;;9.45;6.90;;;12.30;84.70;;;;;;5067822;28;20422;-70
2023/06/06 03:42:25;;;;;;;10.52;7.53;;;12.30;84.70;;;;;;5069276;28;20044;-69
2023/06/06 03:44:50;;;;;;;12.25;7.50;;;12.30;84.80;;;;;;5068604;28;20036;-69
2023/06/06 03:47:16;;;;;;;10.65;7.35;;;12.30;84.90;;;;;;5074263;28;20034;-69
2023/06/06 03:49:41;;;;;;;9.40;6.38;;;12.20;84.90;;;;;;5072834;28;20036;-70
2023/06/06 03:52:07;;;;;;;9.20;7.00;;;12.20;85.10;;;;;;5072051;28;20032;-69
2023/06/06 03:54:37;;;;;;;9.65;6.93;;;12.20;85.10;;;;;;5074926;28;20028;-70
2023/06/06 03:57:04;;;;;;;9.70;6.85;;;12.20;85.30;;;;;;5075446;28;20025;-69
2023/06/06 03:59:30;;;;;;;11.38;7.15;;;12.20;85.40;;;;;;5073261;28;20081;-68
2023/06/06 04:01:55;;;;;;;11.38;7.82;;;12.20;85.60;;;;;;5072967;28;20359;-68
2023/06/06 04:04:21;;;;;;;11.77;7.95;;;12.20;85.90;;;;;;5071690;28;20050;-68
2023/06/06 04:06:46;;;;;;;9.65;6.95;;;12.20;86.10;;;;;;5071909;28;20028;-67
2023/06/06 04:09:14;;;;;;;10.38;6.88;;;12.20;85.90;;;;;;5073073;28;20103;-68
2023/06/06 04:11:40;;;;;;;9.90;7.05;;;12.20;86.40;;;;;;5072735;28;20102;-68
2023/06/06 04:14:05;;;;;;;10.25;7.32;;;12.20;85.90;;;;;;5072764;28;20152;-68
2023/06/06 04:16:31;;;;;;;10.20;6.97;;;12.20;85.90;;;;;;5071080;28;20104;-68
2023/06/06 04:18:57;;;;;;;12.27;7.07;;;12.30;86.00;;;;;;5073428;28;20025;-68
2023/06/06 04:21:22;;;;;;;12.18;8.27;;;12.30;86.00;;;;;;5074707;28;20036;-69
2023/06/06 04:23:48;;;;;;;10.23;6.95;;;12.30;86.10;;;;;;5073106;28;20441;-68
2023/06/06 04:26:34;;;;;;;9.57;6.82;;;12.30;86.10;;;;;;5075034;28;20024;-69
2023/06/06 04:28:59;;;;;;;10.40;7.32;;;12.30;86.80;;;;;;5070547;28;20162;-69
2023/06/06 04:31:29;;;;;;;10.98;7.78;;;12.40;86.20;;;;;;5067783;28;20562;-68
2023/06/06 04:34:01;;;;;;;11.27;8.02;;;12.40;86.10;;;;;;5066273;28;20494;-68
2023/06/06 04:36:26;;;;;;;9.30;7.00;;;12.30;87.10;;;;;;5066473;28;20044;-68
2023/06/06 04:39:00;;;;;;;10.40;7.40;;;12.40;86.40;;;;;;5072341;28;20359;-68
2023/06/06 04:41:25;;;;;;;11.15;7.40;;;12.40;86.20;;;;;;5067325;28;20017;-69
2023/06/06 04:43:51;;;;;;;11.38;7.30;;;12.50;86.10;;;;;;5070046;28;20509;-69
2023/06/06 04:46:23;;;;;;;10.30;7.07;;;12.50;86.10;;;;;;5064888;28;20755;-69
2023/06/06 04:48:54;;;;;;;;;;;12.50;85.90;;;;;;5068595;28;20115;-69
2023/06/06 04:51:22;;;;;;;9.77;6.80;;;12.60;85.70;;;;;;5072670;28;19917;-68
2023/06/06 04:53:50;;;;;;;8.95;6.28;;;12.70;85.90;;;;;;5072749;28;20490;-68
2023/06/06 04:56:17;;;;;;;12.35;7.30;;;13.20;84.90;;;;;;5071747;28;20379;-68
2023/06/06 04:58:44;;;;;;;10.98;6.82;;;13.70;83.40;;;;;;5071530;28;20020;-68
2023/06/06 05:01:12;;;;;;;8.07;5.68;;;14.00;81.90;;;;;;5079674;28;20070;-70
2023/06/06 05:03:38;;;;;;;8.40;5.88;;;14.40;80.70;;;;;;5074654;28;20576;-69
2023/06/06 05:06:05;;;;;;;8.32;6.30;;;14.70;79.10;;;;;;5082950;28;20028;-69
2023/06/06 05:08:35;;;;;;;9.02;6.18;;;15.00;77.80;;;;;;5078416;28;20032;-69
2023/06/06 05:11:01;;;;;;;10.60;6.72;;;15.30;76.80;;;;;;5066649;28;20052;-68
2023/06/06 05:13:26;;;;;;;9.35;6.05;;;15.50;76.40;;;;;;5081476;28;20075;-68
2023/06/06 05:15:52;;;;;;;7.68;5.47;;;15.50;75.00;;;;;;5070008;28;20024;-69
2023/06/06 05:18:20;;;;;;;8.35;5.68;;;15.80;75.10;;;;;;5069376;28;20020;-68
2023/06/06 05:20:46;;;;;;;8.90;6.05;;;16.10;73.60;;;;;;5062027;28;20045;-69
2023/06/06 05:23:12;;;;;;;8.13;5.47;;;16.20;72.80;;;;;;5076444;28;20048;-69
2023/06/06 05:25:37;;;;;;;9.10;6.05;;;16.40;72.40;;;;;;5073256;28;20027;-69
2023/06/06 05:28:03;;;;;;;8.77;6.30;;;16.60;71.60;;;;;;5072145;28;20032;-68
2023/06/06 05:30:29;;;;;;;10.30;6.43;;;16.60;71.10;;;;;;5071982;28;20028;-69
2023/06/06 05:32:55;;;;;;;7.38;5.30;;;16.80;70.80;;;;;;5082323;28;20052;-69
2023/06/06 05:35:20;;;;;;;10.13;5.85;;;16.90;70.20;;;;;;5072801;28;20626;-69
2023/06/06 05:37:46;;;;;;;12.00;6.03;;;16.90;69.90;;;;;;5072169;28;20373;-70
2023/06/06 05:40:11;;;;;;;7.78;5.22;;;16.90;69.90;;;;;;5070925;28;20084;-70
2023/06/06 05:42:38;;;;;;;8.68;6.15;;;17.10;69.80;;;;;;5078894;28;20020;-70
2023/06/06 05:45:04;;;;;;;9.43;5.40;;;17.20;69.30;;;;;;5066153;28;20020;-69
2023/06/06 05:47:30;;;;;;;7.93;5.45;;;17.30;69.20;;;;;;5072276;28;20028;-69
2023/06/06 05:49:55;;;;;;;8.32;5.78;;;17.30;68.90;;;;;;5072245;28;20383;-69
2023/06/06 05:52:21;;;;;;;10.10;5.60;;;17.30;68.90;;;;;;5070831;28;20382;-69
2023/06/06 05:54:47;;;;;;;8.30;5.10;;;17.40;69.00;;;;;;5065575;28;20688;-69
2023/06/06 05:57:20;;;;;;;8.10;5.32;;;17.40;68.90;;;;;;5070428;28;20013;-69
2023/06/06 05:59:46;;;;;;;8.77;5.70;;;17.40;68.70;;;;;;5060030;28;20031;-69
2023/06/06 06:02:14;;;;;;;7.70;5.47;;;17.20;68.80;;;;;;5071440;28;20092;-69
2023/06/06 06:04:40;;;;;;;7.25;5.10;;;17.10;69.10;;;;;;5080070;28;20025;-69
2023/06/06 06:07:06;;;;;;;9.32;5.40;;;17.00;69.30;;;;;;5068619;28;20021;-69
2023/06/06 06:09:32;;;;;;;7.57;5.25;;;17.00;69.50;;;;;;5060253;28;20032;-69
2023/06/06 06:11:58;;;;;;;7.05;5.10;;;16.90;69.30;;;;;;5074021;28;20074;-69
2023/06/06 06:14:24;;;;;;;7.97;5.35;;;16.80;69.50;;;;;;5078022;28;20376;-69
2023/06/06 06:16:49;;;;;;;7.68;5.40;;;16.80;69.40;;;;;;5071022;28;20056;-68
2023/06/06 06:19:15;;;;;;;6.45;4.80;;;16.80;69.50;;;;;;5070426;28;20021;-68
2023/06/06 06:21:40;;;;;;;8.35;4.93;;;16.90;69.30;;;;;;5070005;28;20089;-68
2023/06/06 06:24:06;;;;;;;6.47;5.05;;;16.90;69.10;;;;;;5074071;28;20047;-70
2023/06/06 06:26:32;;;;;;;10.27;5.05;;;16.90;68.90;;;;;;5067666;28;20032;-69
2023/06/06 06:29:05;;;;;;;9.63;5.97;;;17.00;68.80;;;;;;5105514;27;20404;-68
2023/06/06 06:31:30;;;;;;;7.53;5.10;;;17.00;68.20;;;;;;5098037;27;20042;-68
2023/06/06 06:33:56;;;;;;;8.32;4.53;;;17.10;68.40;;;;;;5098284;28;20036;-69
2023/06/06 06:36:22;;;;;;;8.80;5.30;;;17.10;68.20;;;;;;5094796;28;20738;-68
2023/06/06 06:38:48;;;;;;;8.77;5.40;;;17.10;68.20;;;;;;5102606;28;20043;-68
2023/06/06 06:41:13;;;;;;;6.53;4.90;;;17.30;67.90;;;;;;5110773;27;20483;-69
2023/06/06 06:43:39;;;;;;;7.60;5.03;;;17.30;67.60;;;;;;5095317;28;20081;-68
2023/06/06 06:46:05;;;;;;;8.52;5.40;;;17.30;67.30;;;;;;5092941;28;20050;-69
2023/06/06 06:48:31;;;;;;;7.45;4.90;;;17.30;67.10;;;;;;5093561;28;20020;-68
2023/06/06 06:50:56;;;;;;;7.60;4.80;;;17.30;67.00;;;;;;5098659;28;20451;-68
2023/06/06 06:53:25;;;;;;;8.73;5.30;;;17.50;66.90;;;;;;5102764;28;20048;-68
2023/06/06 06:55:52;;;;;;;7.95;4.40;;;17.60;66.50;;;;;;5096600;28;20093;-68
2023/06/06 06:58:25;;;;;;;8.48;5.47;;;17.70;66.40;;;;;;5102578;28;20092;-68
2023/06/06 07:00:52;;;;;;;6.63;4.22;;;17.80;66.60;;;;;;5095625;28;20055;-68
2023/06/06 07:03:18;;;;;;;5.75;3.95;;;18.00;65.80;;;;;;5099348;28;20785;-69
2023/06/06 07:05:44;;;;;;;7.68;5.05;;;18.20;65.70;;;;;;5099586;28;20031;-69
2023/06/06 07:08:10;;;;;;;9.02;5.30;;;18.30;65.30;;;;;;5097038;28;20066;-69
2023/06/06 07:10:35;;;;;;;8.20;5.10;;;18.30;64.80;;;;;;5100055;28;20642;-69
2023/06/06 07:13:01;;;;;;;7.90;4.80;;;18.30;64.70;;;;;;5098238;28;20027;-69
2023/06/06 07:15:27;;;;;;;6.93;5.03;;;18.50;64.50;;;;;;5110020;28;20072;-70
2023/06/06 07:17:53;;;;;;;5.78;4.22;;;18.50;64.30;;;;;;5102681;28;20025;-69
2023/06/06 07:20:22;;;;;;;7.00;4.57;;;18.60;64.20;;;;;;5092190;28;20028;-69
2023/06/06 07:22:50;;;;;;;7.40;4.47;;;18.80;63.90;;;;;;5102393;28;20417;-69
2023/06/06 07:25:16;;;;;;;7.65;4.68;;;18.90;63.40;;;;;;5103059;28;20032;-69
2023/06/06 07:27:42;;;;;;;7.30;5.03;;;19.10;63.10;;;;;;5101230;28;20028;-69
2023/06/06 07:30:12;;;;;;;6.90;4.78;;;19.20;62.80;;;;;;5106945;28;20556;-69
2023/06/06 07:32:46;;;;;;;6.88;4.20;;;19.30;62.50;;;;;;5093531;28;20028;-69
2023/06/06 07:35:14;;;;;;;7.43;4.63;;;19.30;62.30;;;;;;5096790;28;20024;-69
2023/06/06 07:37:40;;;;;;;6.47;4.70;;;19.30;62.00;;;;;;5091714;28;20046;-69
2023/06/06 07:40:08;;;;;;;5.90;3.83;;;19.40;62.10;;;;;;5082594;28;20044;-70
2023/06/06 07:42:35;;;;;;;7.82;4.70;;;19.50;62.00;;;;;;5091797;28;20013;-69
2023/06/06 07:45:01;;;;;;;8.38;4.90;;;19.60;61.60;;;;;;5078600;28;20588;-69
2023/06/06 07:47:27;;;;;;;5.70;3.30;;;19.70;61.30;;;;;;5092186;28;20054;-70
2023/06/06 07:49:52;;;;;;;5.35;3.42;;;19.90;61.50;;;;;;5078613;28;20510;-69
2023/06/06 07:52:18;;;;;;;6.35;4.28;;;20.00;61.10;;;;;;5072890;28;20063;-70
2023/06/06 07:54:44;;;;;;;5.90;3.67;;;20.20;61.10;;;;;;5093654;28;20119;-69
2023/06/06 07:57:11;;;;;;;6.80;4.15;;;20.30;60.60;;;;;;5100594;28;20032;-69
2023/06/06 07:59:38;;;;;;;6.53;4.28;;;20.40;60.20;;;;;;5089070;28;20024;-69
2023/06/06 08:02:05;;;;;;;6.70;4.18;;;20.50;60.10;;;;;;5091206;28;20055;-70
2023/06/06 08:04:30;;;;;;;6.93;4.78;;;20.60;59.80;;;;;;5079406;28;20560;-70
2023/06/06 08:06:56;;;;;;;7.68;4.20;;;20.60;59.50;;;;;;5080598;28;20031;-71
2023/06/06 08:09:22;;;;;;;5.95;3.90;;;20.70;59.50;;;;;;5082516;28;20027;-71
2023/06/06 08:11:48;;;;;;;5.22;3.50;;;20.80;59.50;;;;;;5081182;28;20024;-71
2023/06/06 08:14:13;;;;;;;7.80;4.65;;;20.90;59.30;;;;;;5081030;28;20051;-71
2023/06/06 08:16:39;;;;;;;5.55;3.75;;;20.80;58.80;;;;;;5085809;28;20662;-71
2023/06/06 08:19:05;;;;;;;7.60;5.13;;;20.90;59.00;;;;;;5087415;28;20055;-71
2023/06/06 08:21:30;;;;;;;7.07;4.90;;;20.90;58.60;;;;;;5087616;28;20667;-71
2023/06/06 08:23:57;;;;;;;6.55;4.18;;;20.80;58.30;;;;;;5080210;28;20495;-71
2023/06/06 08:26:25;;;;;;;5.82;3.63;;;20.80;58.90;;;;;;5081773;28;20127;-71
2023/06/06 08:28:54;;;;;;;6.43;4.38;;;21.00;59.00;;;;;;5081440;28;20497;-71
2023/06/06 08:31:20;;;;;;;6.75;4.40;;;21.20;58.50;;;;;;5085866;28;21524;-71
2023/06/06 08:33:49;;;;;;;6.47;4.03;;;21.20;58.40;;;;;;5077314;28;20078;-71
2023/06/06 08:36:15;;;;;;;6.20;4.20;;;21.20;58.20;;;;;;5083752;28;20362;-72
2023/06/06 08:38:43;;;;;;;8.25;4.43;;;21.10;58.10;;;;;;5084251;28;20482;-71
2023/06/06 08:41:10;;;;;;;5.70;3.75;;;21.20;58.20;;;;;;5087454;28;20025;-71
2023/06/06 08:43:39;;;;;;;9.00;4.50;;;21.30;58.40;;;;;;5084235;28;20028;-71
2023/06/06 08:46:05;;;;;;;6.40;4.38;;;21.40;58.00;;;;;;5083596;28;20059;-71
2023/06/06 08:48:34;;;;;;;7.22;4.10;;;21.50;57.80;;;;;;5076740;28;20445;-72
2023/06/06 08:51:03;;;;;;;7.10;4.30;;;21.50;57.70;;;;;;5083776;28;20024;-71
2023/06/06 08:53:30;;;;;;;4.95;3.63;;;21.60;57.30;;;;;;5084304;28;20111;-71
2023/06/06 08:55:57;;;;;;;7.35;4.75;;;21.60;57.30;;;;;;5078802;28;20538;-71
2023/06/06 08:58:23;;;;;;;7.80;4.38;;;21.70;57.20;;;;;;5078724;28;20032;-71
2023/06/06 09:00:49;;;;;;;6.82;4.70;;;21.70;57.00;;;;;;5084821;28;20030;-71
2023/06/06 09:03:17;;;;;;;6.35;4.05;;;21.60;57.00;;;;;;5088562;28;20039;-71
2023/06/06 09:05:46;;;;;;;6.00;3.72;;;21.70;57.30;;;;;;5086369;28;20474;-71
2023/06/06 09:08:11;;;;;;;7.20;3.97;;;21.90;57.10;;;;;;5080735;28;20034;-71
2023/06/06 09:10:37;;;;;;;5.82;4.00;;;22.00;56.80;;;;;;5084576;28;20032;-75
2023/06/06 09:13:02;;;;;;;7.78;4.25;;;22.10;56.50;;;;;;5082881;28;20024;-71
2023/06/06 09:15:28;;;;;;;5.10;3.78;;;22.20;56.40;;;;;;5085459;28;20024;-71
2023/06/06 09:17:55;;;;;;;7.75;3.67;;;22.20;56.30;;;;;;5080454;28;20050;-71
2023/06/06 09:20:22;;;;;;;4.85;3.70;;;22.30;56.10;;;;;;5085554;28;20097;-71
2023/06/06 09:22:49;;;;;;;5.10;3.03;;;22.50;56.00;;;;;;5085606;28;21715;-71
2023/06/06 09:25:25;;;;;;;6.50;3.80;;;22.70;55.90;;;;;;5081261;28;20024;-71
2023/06/06 09:28:01;;;;;;;5.45;3.75;;;22.80;55.60;;;;;;5075380;28;20063;-71
2023/06/06 09:30:29;;;;;;;7.85;4.47;;;22.80;55.10;;;;;;5083651;28;20038;-71
2023/06/06 09:32:57;;;;;;;5.18;3.40;;;22.80;55.00;;;;;;5082993;28;20035;-71
2023/06/06 09:35:23;;;;;;;6.65;3.47;;;22.90;54.80;;;;;;5088186;28;20027;-71
2023/06/06 09:37:49;;;;;;;7.07;3.80;;;22.90;55.00;;;;;;5082875;28;20036;-72
2023/06/06 09:40:16;;;;;;;5.72;3.38;;;22.90;54.90;;;;;;5085773;28;20032;-71
2023/06/06 09:42:45;;;;;;;7.85;4.22;;;23.00;55.10;;;;;;5084088;28;20133;-71
2023/06/06 09:45:12;;;;;;;7.63;3.78;;;23.10;55.00;;;;;;5080374;28;20043;-71
2023/06/06 09:47:46;;;;;;;5.95;4.10;;;23.10;55.00;;;;;;5082852;28;20032;-71
2023/06/06 09:50:14;;;;;;;5.22;3.22;;;23.10;54.60;;;;;;5083855;28;20651;-71
2023/06/06 09:52:41;;;;;;;5.25;3.70;;;23.20;54.60;;;;;;5086108;28;20011;-71
2023/06/06 09:55:12;;;;;;;7.40;4.40;;;23.30;54.50;;;;;;5087492;28;20111;-71
2023/06/06 09:57:39;;;;;;;6.70;4.60;;;23.30;54.00;;;;;;5086153;28;20028;-71
2023/06/06 10:00:10;;;;;;;6.45;3.72;;;23.10;53.70;;;;;;5084336;28;20052;-72
2023/06/06 10:02:43;;;;;;;6.55;4.18;;;23.10;54.30;;;;;;5079602;28;20509;-71
2023/06/06 10:05:14;;;;;;;5.53;3.95;;;23.30;54.10;;;;;;5085487;28;20087;-71
2023/06/06 10:07:44;;;;;;;7.00;4.05;;;23.30;53.70;;;;;;5084438;28;20390;-71
2023/06/06 10:10:12;;;;;;;6.80;3.92;;;23.30;53.80;;;;;;5080396;28;20099;-71
2023/06/06 10:12:39;;;;;;;4.72;3.53;;;23.50;53.80;;;;;;5086224;28;20019;-71
2023/06/06 10:15:07;;;;;;;5.55;3.33;;;23.70;53.50;;;;;;5089118;28;20490;-71
2023/06/06 10:17:38;;;;;;;6.07;4.00;;;23.80;53.10;;;;;;5092634;28;20027;-72
2023/06/06 10:20:06;;;;;;;6.03;4.10;;;23.70;52.70;;;;;;5080440;28;20028;-71
2023/06/06 10:22:36;;;;;;;5.43;3.83;;;23.70;53.20;;;;;;5084177;28;20038;-71
2023/06/06 10:25:03;;;;;;;5.53;3.25;;;23.80;53.30;;;;;;5084273;28;20043;-71
2023/06/06 10:27:39;;;;;;;7.47;3.72;;;23.80;53.10;;;;;;5091426;28;20081;-71
2023/06/06 10:30:15;;;;;;;8.73;4.30;;;23.90;52.90;;;;;;5091281;28;20028;-71
2023/06/06 10:32:52;;;;;;;6.60;3.72;;;23.90;51.90;;;;;;5090022;28;20020;-72
2023/06/06 10:35:18;;;;;;;7.97;4.28;;;23.70;52.40;;;;;;5093394;28;20069;-71
2023/06/06 10:38:09;;;;;;;6.22;4.00;;;23.70;52.50;;;;;;5087296;28;20775;-71
2023/06/06 10:40:55;;;;;;;6.77;4.47;;;23.80;52.70;;;;;;5089819;28;20131;-72
2023/06/06 10:43:32;;;;;;;7.05;4.30;;;23.90;52.40;;;;;;5085410;28;20094;-72
2023/06/06 10:45:58;;;;;;;5.20;3.55;;;23.90;52.50;;;;;;5083009;28;20089;-71
2023/06/06 10:48:38;;;;;;;7.13;3.40;;;24.00;52.50;;;;;;5086007;28;20078;-72
2023/06/06 10:51:04;;;;;;;5.18;3.20;;;24.20;52.10;;;;;;5082435;28;20024;-72
2023/06/06 10:53:30;;;;;;;5.82;3.05;;;24.30;51.70;;;;;;5092884;28;20065;-72
2023/06/06 10:55:56;;;;;;;7.70;4.70;;;24.50;51.60;;;;;;5088526;28;20024;-71
2023/06/06 10:58:32;;;;;;;5.55;3.80;;;24.60;51.10;;;;;;5084006;28;20123;-71
2023/06/06 11:00:58;;;;;;;6.30;3.70;;;24.50;51.60;;;;;;5079933;28;20058;-72
2023/06/06 11:03:41;;;;;;;7.63;3.83;;;24.60;51.70;;;;;;5081947;28;21359;-72
2023/06/06 11:06:11;;;;;;;5.43;3.40;;;24.70;51.50;;;;;;5079628;28;20038;-72
2023/06/06 11:08:53;;;;;;;8.45;4.10;;;24.80;51.10;;;;;;5086880;28;20024;-71
2023/06/06 11:11:23;;;;;;;6.85;4.30;;;24.80;50.90;;;;;;5085449;28;20108;-72
2023/06/06 11:13:51;;;;;;;6.13;3.70;;;25.00;50.90;;;;;;5084774;28;20081;-72
2023/06/06 11:16:26;;;;;;;5.95;3.85;;;25.10;50.70;;;;;;5094653;28;20024;-71
2023/06/06 11:19:01;;;;;;;5.88;3.30;;;25.30;50.30;;;;;;5086445;28;20032;-71
2023/06/06 11:21:27;;;;;;;7.25;3.90;;;25.40;49.80;;;;;;5084042;28;20051;-71
2023/06/06 11:23:54;;;;;;;6.97;4.10;;;25.10;49.60;;;;;;5097471;28;20035;-72
2023/06/06 11:26:20;;;;;;;6.70;3.85;;;25.10;49.70;;;;;;5083533;28;20035;-72
2023/06/06 11:28:46;;;;;;;5.40;3.20;;;25.00;49.60;;;;;;5087885;28;20111;-72
2023/06/06 11:31:16;;;;;;;6.30;3.70;;;25.10;50.10;;;;;;5083714;28;20574;-71
2023/06/06 11:33:43;;;;;;;5.50;3.03;;;25.40;50.00;;;;;;5086605;28;20020;-72
2023/06/06 11:36:09;;;;;;;6.10;3.20;;;25.80;49.60;;;;;;5079142;28;20066;-72
2023/06/06 11:38:34;;;;;;;5.90;3.63;;;26.00;49.00;;;;;;5085440;28;20024;-72
2023/06/06 11:41:03;;;;;;;6.70;3.65;;;26.10;48.30;;;;;;5083404;28;20028;-72
2023/06/06 11:43:29;;;;;;;6.47;4.00;;;26.20;48.30;;;;;;5081148;28;20040;-71
2023/06/06 11:46:05;;;;;;;5.63;3.90;;;26.20;47.80;;;;;;5083768;28;20371;-71
2023/06/06 11:48:31;;;;;;;5.47;3.20;;;25.80;48.30;;;;;;5085382;28;20032;-71
2023/06/06 11:50:57;;;;;;;7.22;3.70;;;25.80;49.00;;;;;;5085130;28;20389;-72
2023/06/06 11:53:30;;;;;;;4.30;3.00;;;25.80;48.90;;;;;;5087224;28;20095;-72
2023/06/06 11:55:56;;;;;;;8.05;3.58;;;26.10;48.80;;;;;;5082404;28;20024;-72
2023/06/06 11:58:23;;;;;;;7.70;3.65;;;26.30;48.40;;;;;;5087660;28;20151;-72
2023/06/06 12:00:49;;;;;;;7.05;3.67;;;26.40;47.90;;;;;;5087845;28;20040;-72
2023/06/06 12:03:15;;;;;;;5.28;3.60;;;26.60;47.50;;;;;;5088836;28;20442;-72
2023/06/06 12:05:41;;;;;;;4.57;3.30;;;26.60;47.10;;;;;;5087118;28;20714;-72
2023/06/06 12:08:07;;;;;;;5.22;3.40;;;26.70;47.00;;;;;;5085510;28;20039;-72
2023/06/06 12:10:33;;;;;;;6.95;3.35;;;26.90;46.70;;;;;;5080157;28;20528;-72
2023/06/06 12:12:59;;;;;;;7.57;3.45;;;27.00;46.70;;;;;;5082315;28;20027;-72
2023/06/06 12:15:44;;;;;;;5.93;3.75;;;27.20;46.60;;;;;;5085465;27;20024;-72
2023/06/06 12:18:10;;;;;;;4.80;3.40;;;27.10;46.40;;;;;;5087656;28;20024;-72
2023/06/06 12:20:36;;;;;;;6.15;3.28;;;27.20;46.40;;;;;;5082142;28;20035;-72
2023/06/06 12:23:01;;;;;;;5.40;3.45;;;27.20;46.50;;;;;;5085083;28;20058;-72
2023/06/06 12:25:28;;;;;;;5.18;3.05;;;27.40;46.20;;;;;;5090553;28;20063;-72
2023/06/06 12:27:55;;;;;;;5.88;3.33;;;27.50;45.90;;;;;;5092361;28;20058;-71
2023/06/06 12:30:31;;;;;;;7.80;3.40;;;27.60;45.20;;;;;;5088072;28;20031;-72
2023/06/06 12:32:58;;;;;;;5.38;2.97;;;27.60;45.20;;;;;;5082923;28;20066;-72
2023/06/06 12:35:24;;;;;;;6.53;3.70;;;27.70;44.50;;;;;;5083009;28;20020;-71
2023/06/06 12:37:50;;;;;;;6.32;3.90;;;27.30;44.80;;;;;;5081883;28;20035;-72
2023/06/06 12:40:17;;;;;;;7.30;3.50;;;27.40;45.20;;;;;;5079741;28;20119;-72
2023/06/06 12:42:50;;;;;;;5.95;3.38;;;27.50;45.40;;;;;;5088066;28;20114;-72
2023/06/06 12:45:16;;;;;;;5.88;2.90;;;27.70;44.70;;;;;;5085993;28;20027;-72
2023/06/06 12:47:41;;;;;;;4.90;2.83;;;28.00;44.80;;;;;;5090574;28;20024;-72